sensor_id;sensor_type;location;lat;lon;timestamp;P1;durP1;ratioP1;P2;durP2;ratioP2
72113;SDS011;59989;46.220;19.888;2022-07-23T00:01:13;17.45;;;5.22;;
72113;SDS011;59989;46.220;19.888;2022-07-23T00:04:23;16.70;;;5.30;;
72113;SDS011;59989;46.220;19.888;2022-07-23T00:07:25;17.63;;;5.55;;
72113;SDS011;59989;46.220;19.888;2022-07-23T00:10:28;16.13;;;4.90;;
72113;SDS011;59989;46.220;19.888;2022-07-23T00:13:30;17.95;;;5.20;;
72113;SDS011;59989;46.220;19.888;2022-07-23T00:16:33;20.30;;;5.35;;
72113;SDS011;59989;46.220;19.888;2022-07-23T00:19:35;18.08;;;5.47;;
72113;SDS011;59989;46.220;19.888;2022-07-23T00:25:49;18.07;;;5.53;;
72113;SDS011;59989;46.220;19.888;2022-07-23T00:28:53;16.63;;;5.35;;
72113;SDS011;59989;46.220;19.888;2022-07-23T00:31:55;14.88;;;4.80;;
72113;SDS011;59989;46.220;19.888;2022-07-23T00:34:58;17.38;;;5.10;;
72113;SDS011;59989;46.220;19.888;2022-07-23T00:38:01;15.55;;;4.90;;
72113;SDS011;59989;46.220;19.888;2022-07-23T00:41:04;20.00;;;5.03;;
72113;SDS011;59989;46.220;19.888;2022-07-23T00:44:13;16.35;;;5.22;;
72113;SDS011;59989;46.220;19.888;2022-07-23T00:47:21;17.20;;;4.88;;
72113;SDS011;59989;46.220;19.888;2022-07-23T00:50:23;16.90;;;5.05;;
72113;SDS011;59989;46.220;19.888;2022-07-23T00:53:26;18.85;;;5.20;;
72113;SDS011;59989;46.220;19.888;2022-07-23T00:56:29;14.50;;;4.63;;
72113;SDS011;59989;46.220;19.888;2022-07-23T00:59:32;13.52;;;4.72;;
72113;SDS011;59989;46.220;19.888;2022-07-23T01:02:35;16.52;;;5.00;;
72113;SDS011;59989;46.220;19.888;2022-07-23T01:05:37;13.45;;;4.97;;
72113;SDS011;59989;46.220;19.888;2022-07-23T01:08:40;17.65;;;5.22;;
72113;SDS011;59989;46.220;19.888;2022-07-23T01:11:44;13.97;;;4.77;;
72113;SDS011;59989;46.220;19.888;2022-07-23T01:14:59;15.77;;;5.35;;
72113;SDS011;59989;46.220;19.888;2022-07-23T01:18:04;11.80;;;4.72;;
72113;SDS011;59989;46.220;19.888;2022-07-23T01:21:10;12.82;;;5.05;;
72113;SDS011;59989;46.220;19.888;2022-07-23T01:24:15;16.25;;;5.45;;
72113;SDS011;59989;46.220;19.888;2022-07-23T01:27:28;15.03;;;4.80;;
72113;SDS011;59989;46.220;19.888;2022-07-23T01:30:35;15.35;;;5.28;;
72113;SDS011;59989;46.220;19.888;2022-07-23T01:33:41;16.25;;;5.28;;
72113;SDS011;59989;46.220;19.888;2022-07-23T01:36:43;15.07;;;5.22;;
72113;SDS011;59989;46.220;19.888;2022-07-23T01:39:47;15.55;;;5.10;;
72113;SDS011;59989;46.220;19.888;2022-07-23T01:42:50;19.70;;;5.33;;
72113;SDS011;59989;46.220;19.888;2022-07-23T01:45:53;17.70;;;5.18;;
72113;SDS011;59989;46.220;19.888;2022-07-23T01:48:56;12.82;;;5.10;;
72113;SDS011;59989;46.220;19.888;2022-07-23T01:52:13;12.93;;;5.00;;
72113;SDS011;59989;46.220;19.888;2022-07-23T01:55:19;16.38;;;4.85;;
72113;SDS011;59989;46.220;19.888;2022-07-23T01:58:24;15.33;;;5.17;;
72113;SDS011;59989;46.220;19.888;2022-07-23T02:01:27;14.95;;;4.75;;
72113;SDS011;59989;46.220;19.888;2022-07-23T02:04:29;15.43;;;5.30;;
72113;SDS011;59989;46.220;19.888;2022-07-23T02:07:32;12.05;;;5.00;;
72113;SDS011;59989;46.220;19.888;2022-07-23T02:10:36;15.75;;;5.20;;
72113;SDS011;59989;46.220;19.888;2022-07-23T02:13:38;16.07;;;5.50;;
72113;SDS011;59989;46.220;19.888;2022-07-23T02:16:41;16.95;;;5.40;;
72113;SDS011;59989;46.220;19.888;2022-07-23T02:19:44;15.30;;;5.53;;
72113;SDS011;59989;46.220;19.888;2022-07-23T02:22:47;12.27;;;5.10;;
72113;SDS011;59989;46.220;19.888;2022-07-23T02:25:49;15.88;;;5.50;;
72113;SDS011;59989;46.220;19.888;2022-07-23T02:28:52;12.73;;;5.30;;
72113;SDS011;59989;46.220;19.888;2022-07-23T02:31:57;16.67;;;5.20;;
72113;SDS011;59989;46.220;19.888;2022-07-23T02:35:00;13.82;;;4.82;;
72113;SDS011;59989;46.220;19.888;2022-07-23T02:38:03;14.90;;;5.18;;
72113;SDS011;59989;46.220;19.888;2022-07-23T02:41:06;16.27;;;5.53;;
72113;SDS011;59989;46.220;19.888;2022-07-23T02:44:08;13.57;;;4.73;;
72113;SDS011;59989;46.220;19.888;2022-07-23T02:47:11;12.55;;;5.20;;
72113;SDS011;59989;46.220;19.888;2022-07-23T02:50:14;13.73;;;5.30;;
72113;SDS011;59989;46.220;19.888;2022-07-23T02:53:18;18.15;;;5.13;;
72113;SDS011;59989;46.220;19.888;2022-07-23T02:56:20;17.55;;;5.47;;
72113;SDS011;59989;46.220;19.888;2022-07-23T02:59:23;14.57;;;4.77;;
72113;SDS011;59989;46.220;19.888;2022-07-23T03:02:25;17.73;;;4.75;;
72113;SDS011;59989;46.220;19.888;2022-07-23T03:05:28;14.40;;;5.40;;
72113;SDS011;59989;46.220;19.888;2022-07-23T03:08:31;14.13;;;4.68;;
72113;SDS011;59989;46.220;19.888;2022-07-23T03:11:33;14.27;;;5.45;;
72113;SDS011;59989;46.220;19.888;2022-07-23T03:14:36;17.17;;;5.70;;
72113;SDS011;59989;46.220;19.888;2022-07-23T03:17:38;14.93;;;5.18;;
72113;SDS011;59989;46.220;19.888;2022-07-23T03:20:41;15.90;;;5.25;;
72113;SDS011;59989;46.220;19.888;2022-07-23T03:23:45;14.80;;;5.72;;
72113;SDS011;59989;46.220;19.888;2022-07-23T03:26:47;15.32;;;5.40;;
72113;SDS011;59989;46.220;19.888;2022-07-23T03:29:50;14.90;;;5.60;;
72113;SDS011;59989;46.220;19.888;2022-07-23T03:32:54;16.40;;;5.03;;
72113;SDS011;59989;46.220;19.888;2022-07-23T03:35:57;14.80;;;5.22;;
72113;SDS011;59989;46.220;19.888;2022-07-23T03:39:04;20.60;;;5.20;;
72113;SDS011;59989;46.220;19.888;2022-07-23T03:42:07;16.88;;;5.70;;
72113;SDS011;59989;46.220;19.888;2022-07-23T03:45:09;16.70;;;6.73;;
72113;SDS011;59989;46.220;19.888;2022-07-23T03:48:12;13.98;;;5.22;;
72113;SDS011;59989;46.220;19.888;2022-07-23T03:51:15;23.42;;;5.65;;
72113;SDS011;59989;46.220;19.888;2022-07-23T03:54:17;15.35;;;5.53;;
72113;SDS011;59989;46.220;19.888;2022-07-23T03:57:20;17.70;;;5.78;;
72113;SDS011;59989;46.220;19.888;2022-07-23T04:00:23;15.93;;;5.33;;
72113;SDS011;59989;46.220;19.888;2022-07-23T04:03:26;19.73;;;6.45;;
72113;SDS011;59989;46.220;19.888;2022-07-23T04:06:29;16.27;;;4.90;;
72113;SDS011;59989;46.220;19.888;2022-07-23T04:09:33;17.65;;;5.57;;
72113;SDS011;59989;46.220;19.888;2022-07-23T04:12:36;15.70;;;5.60;;
72113;SDS011;59989;46.220;19.888;2022-07-23T04:15:39;15.40;;;5.20;;
72113;SDS011;59989;46.220;19.888;2022-07-23T04:18:42;19.30;;;5.43;;
72113;SDS011;59989;46.220;19.888;2022-07-23T04:21:50;17.85;;;5.68;;
72113;SDS011;59989;46.220;19.888;2022-07-23T04:24:53;20.33;;;6.15;;
72113;SDS011;59989;46.220;19.888;2022-07-23T04:27:55;14.20;;;5.55;;
72113;SDS011;59989;46.220;19.888;2022-07-23T04:30:58;38.53;;;14.63;;
72113;SDS011;59989;46.220;19.888;2022-07-23T04:34:01;47.55;;;19.10;;
72113;SDS011;59989;46.220;19.888;2022-07-23T04:37:05;46.67;;;19.17;;
72113;SDS011;59989;46.220;19.888;2022-07-23T04:40:07;42.95;;;17.33;;
72113;SDS011;59989;46.220;19.888;2022-07-23T04:43:11;39.05;;;15.35;;
72113;SDS011;59989;46.220;19.888;2022-07-23T04:46:20;30.97;;;10.13;;
72113;SDS011;59989;46.220;19.888;2022-07-23T04:49:25;24.27;;;9.65;;
72113;SDS011;59989;46.220;19.888;2022-07-23T04:52:29;23.55;;;8.85;;
72113;SDS011;59989;46.220;19.888;2022-07-23T04:55:31;26.25;;;8.90;;
72113;SDS011;59989;46.220;19.888;2022-07-23T04:58:34;24.27;;;8.73;;
72113;SDS011;59989;46.220;19.888;2022-07-23T05:01:36;18.73;;;7.57;;
72113;SDS011;59989;46.220;19.888;2022-07-23T05:04:39;19.90;;;7.07;;
72113;SDS011;59989;46.220;19.888;2022-07-23T05:07:42;21.40;;;7.97;;
72113;SDS011;59989;46.220;19.888;2022-07-23T05:10:44;21.98;;;7.05;;
72113;SDS011;59989;46.220;19.888;2022-07-23T05:13:48;20.02;;;6.47;;
72113;SDS011;59989;46.220;19.888;2022-07-23T05:16:50;21.37;;;7.17;;
72113;SDS011;59989;46.220;19.888;2022-07-23T05:19:57;25.80;;;6.55;;
72113;SDS011;59989;46.220;19.888;2022-07-23T05:23:03;23.38;;;6.53;;
72113;SDS011;59989;46.220;19.888;2022-07-23T05:26:06;19.73;;;5.93;;
72113;SDS011;59989;46.220;19.888;2022-07-23T05:29:09;16.92;;;5.93;;
72113;SDS011;59989;46.220;19.888;2022-07-23T05:32:12;19.17;;;6.07;;
72113;SDS011;59989;46.220;19.888;2022-07-23T05:35:20;13.15;;;5.38;;
72113;SDS011;59989;46.220;19.888;2022-07-23T05:38:41;16.75;;;5.95;;
72113;SDS011;59989;46.220;19.888;2022-07-23T05:41:43;16.95;;;5.60;;
72113;SDS011;59989;46.220;19.888;2022-07-23T05:44:46;15.05;;;5.90;;
72113;SDS011;59989;46.220;19.888;2022-07-23T05:47:49;14.97;;;5.60;;
72113;SDS011;59989;46.220;19.888;2022-07-23T05:51:07;19.33;;;5.28;;
72113;SDS011;59989;46.220;19.888;2022-07-23T05:54:10;13.88;;;5.47;;
72113;SDS011;59989;46.220;19.888;2022-07-23T05:57:14;16.27;;;5.75;;
72113;SDS011;59989;46.220;19.888;2022-07-23T06:00:16;12.98;;;5.22;;
72113;SDS011;59989;46.220;19.888;2022-07-23T06:03:23;16.40;;;5.40;;
72113;SDS011;59989;46.220;19.888;2022-07-23T06:06:26;13.73;;;5.47;;
72113;SDS011;59989;46.220;19.888;2022-07-23T06:09:29;18.75;;;5.78;;
72113;SDS011;59989;46.220;19.888;2022-07-23T06:12:32;12.63;;;5.43;;
72113;SDS011;59989;46.220;19.888;2022-07-23T06:15:36;15.50;;;5.90;;
72113;SDS011;59989;46.220;19.888;2022-07-23T06:18:38;15.50;;;5.27;;
72113;SDS011;59989;46.220;19.888;2022-07-23T06:21:41;16.52;;;5.32;;
72113;SDS011;59989;46.220;19.888;2022-07-23T06:24:50;13.93;;;5.25;;
72113;SDS011;59989;46.220;19.888;2022-07-23T06:27:56;13.68;;;4.82;;
72113;SDS011;59989;46.220;19.888;2022-07-23T06:31:01;15.32;;;5.38;;
72113;SDS011;59989;46.220;19.888;2022-07-23T06:34:06;13.00;;;5.43;;
72113;SDS011;59989;46.220;19.888;2022-07-23T06:37:10;17.92;;;5.22;;
72113;SDS011;59989;46.220;19.888;2022-07-23T06:40:15;13.77;;;5.28;;
72113;SDS011;59989;46.220;19.888;2022-07-23T06:43:18;16.75;;;4.90;;
72113;SDS011;59989;46.220;19.888;2022-07-23T06:46:21;15.82;;;5.00;;
72113;SDS011;59989;46.220;19.888;2022-07-23T06:49:25;15.77;;;5.20;;
72113;SDS011;59989;46.220;19.888;2022-07-23T06:52:27;14.00;;;5.35;;
72113;SDS011;59989;46.220;19.888;2022-07-23T06:55:30;21.33;;;4.93;;
72113;SDS011;59989;46.220;19.888;2022-07-23T06:58:33;13.40;;;5.20;;
72113;SDS011;59989;46.220;19.888;2022-07-23T07:01:35;11.75;;;5.50;;
72113;SDS011;59989;46.220;19.888;2022-07-23T07:04:39;11.20;;;4.57;;
72113;SDS011;59989;46.220;19.888;2022-07-23T07:07:42;14.55;;;5.20;;
72113;SDS011;59989;46.220;19.888;2022-07-23T07:10:44;15.02;;;5.45;;
72113;SDS011;59989;46.220;19.888;2022-07-23T07:13:47;13.40;;;5.07;;
72113;SDS011;59989;46.220;19.888;2022-07-23T07:16:49;14.13;;;4.80;;
72113;SDS011;59989;46.220;19.888;2022-07-23T07:19:52;20.53;;;5.00;;
72113;SDS011;59989;46.220;19.888;2022-07-23T07:22:55;14.10;;;5.00;;
72113;SDS011;59989;46.220;19.888;2022-07-23T07:25:57;13.15;;;4.80;;
72113;SDS011;59989;46.220;19.888;2022-07-23T07:29:00;21.08;;;4.78;;
72113;SDS011;59989;46.220;19.888;2022-07-23T07:32:03;13.95;;;5.35;;
72113;SDS011;59989;46.220;19.888;2022-07-23T07:35:06;14.43;;;5.00;;
72113;SDS011;59989;46.220;19.888;2022-07-23T07:38:09;12.25;;;4.50;;
72113;SDS011;59989;46.220;19.888;2022-07-23T07:41:12;14.52;;;4.60;;
72113;SDS011;59989;46.220;19.888;2022-07-23T07:44:15;16.30;;;5.00;;
72113;SDS011;59989;46.220;19.888;2022-07-23T07:47:18;13.30;;;5.63;;
72113;SDS011;59989;46.220;19.888;2022-07-23T07:50:21;16.13;;;4.60;;
72113;SDS011;59989;46.220;19.888;2022-07-23T07:53:24;16.95;;;4.75;;
72113;SDS011;59989;46.220;19.888;2022-07-23T07:56:27;14.43;;;4.78;;
72113;SDS011;59989;46.220;19.888;2022-07-23T07:59:30;18.10;;;4.60;;
72113;SDS011;59989;46.220;19.888;2022-07-23T08:02:42;12.98;;;4.30;;
72113;SDS011;59989;46.220;19.888;2022-07-23T08:05:54;15.77;;;4.23;;
72113;SDS011;59989;46.220;19.888;2022-07-23T08:08:57;17.67;;;4.50;;
72113;SDS011;59989;46.220;19.888;2022-07-23T08:11:59;16.88;;;4.55;;
72113;SDS011;59989;46.220;19.888;2022-07-23T08:15:02;13.13;;;4.63;;
72113;SDS011;59989;46.220;19.888;2022-07-23T08:18:05;16.00;;;4.60;;
72113;SDS011;59989;46.220;19.888;2022-07-23T08:21:07;15.10;;;4.87;;
72113;SDS011;59989;46.220;19.888;2022-07-23T08:24:10;12.73;;;4.25;;
72113;SDS011;59989;46.220;19.888;2022-07-23T08:27:13;11.00;;;4.35;;
72113;SDS011;59989;46.220;19.888;2022-07-23T08:30:16;10.30;;;4.28;;
72113;SDS011;59989;46.220;19.888;2022-07-23T08:33:19;16.15;;;4.72;;
72113;SDS011;59989;46.220;19.888;2022-07-23T08:36:35;12.47;;;4.60;;
72113;SDS011;59989;46.220;19.888;2022-07-23T08:39:38;10.68;;;4.30;;
72113;SDS011;59989;46.220;19.888;2022-07-23T08:42:41;13.43;;;4.38;;
72113;SDS011;59989;46.220;19.888;2022-07-23T08:45:45;12.43;;;4.68;;
72113;SDS011;59989;46.220;19.888;2022-07-23T08:48:49;13.40;;;4.72;;
72113;SDS011;59989;46.220;19.888;2022-07-23T08:51:52;12.83;;;4.53;;
72113;SDS011;59989;46.220;19.888;2022-07-23T08:54:55;13.48;;;4.28;;
72113;SDS011;59989;46.220;19.888;2022-07-23T08:57:59;15.05;;;5.72;;
72113;SDS011;59989;46.220;19.888;2022-07-23T09:01:02;16.33;;;4.55;;
72113;SDS011;59989;46.220;19.888;2022-07-23T09:04:04;12.00;;;4.70;;
72113;SDS011;59989;46.220;19.888;2022-07-23T09:07:07;11.53;;;4.03;;
72113;SDS011;59989;46.220;19.888;2022-07-23T09:10:10;15.30;;;4.40;;
72113;SDS011;59989;46.220;19.888;2022-07-23T09:13:23;13.38;;;4.43;;
72113;SDS011;59989;46.220;19.888;2022-07-23T09:16:31;14.05;;;4.15;;
72113;SDS011;59989;46.220;19.888;2022-07-23T09:19:33;13.65;;;3.95;;
72113;SDS011;59989;46.220;19.888;2022-07-23T09:22:36;13.33;;;3.70;;
72113;SDS011;59989;46.220;19.888;2022-07-23T09:25:39;15.68;;;4.13;;
72113;SDS011;59989;46.220;19.888;2022-07-23T09:28:49;15.43;;;4.53;;
72113;SDS011;59989;46.220;19.888;2022-07-23T09:31:54;14.57;;;4.20;;
72113;SDS011;59989;46.220;19.888;2022-07-23T09:34:58;14.82;;;4.10;;
72113;SDS011;59989;46.220;19.888;2022-07-23T09:38:01;14.37;;;4.27;;
72113;SDS011;59989;46.220;19.888;2022-07-23T09:41:08;13.40;;;4.15;;
72113;SDS011;59989;46.220;19.888;2022-07-23T09:44:15;12.57;;;4.70;;
72113;SDS011;59989;46.220;19.888;2022-07-23T09:47:19;16.23;;;4.65;;
72113;SDS011;59989;46.220;19.888;2022-07-23T09:50:23;11.43;;;3.95;;
72113;SDS011;59989;46.220;19.888;2022-07-23T09:53:29;9.90;;;3.80;;
72113;SDS011;59989;46.220;19.888;2022-07-23T09:56:32;15.98;;;4.20;;
72113;SDS011;59989;46.220;19.888;2022-07-23T09:59:36;15.32;;;4.45;;
72113;SDS011;59989;46.220;19.888;2022-07-23T10:02:40;15.02;;;4.13;;
72113;SDS011;59989;46.220;19.888;2022-07-23T10:06:01;9.80;;;4.20;;
72113;SDS011;59989;46.220;19.888;2022-07-23T10:09:43;12.83;;;4.27;;
72113;SDS011;59989;46.220;19.888;2022-07-23T10:13:08;13.57;;;4.50;;
72113;SDS011;59989;46.220;19.888;2022-07-23T10:16:29;15.38;;;4.65;;
72113;SDS011;59989;46.220;19.888;2022-07-23T10:19:32;15.20;;;4.32;;
72113;SDS011;59989;46.220;19.888;2022-07-23T10:22:35;11.57;;;4.00;;
72113;SDS011;59989;46.220;19.888;2022-07-23T10:26:05;10.83;;;4.20;;
72113;SDS011;59989;46.220;19.888;2022-07-23T10:36:18;11.40;;;4.53;;
72113;SDS011;59989;46.220;19.888;2022-07-23T10:39:29;13.00;;;4.32;;
72113;SDS011;59989;46.220;19.888;2022-07-23T10:42:34;12.23;;;4.10;;
72113;SDS011;59989;46.220;19.888;2022-07-23T10:45:37;13.40;;;4.35;;
72113;SDS011;59989;46.220;19.888;2022-07-23T10:48:40;15.52;;;4.30;;
72113;SDS011;59989;46.220;19.888;2022-07-23T10:52:14;9.93;;;4.28;;
72113;SDS011;59989;46.220;19.888;2022-07-23T10:58:45;14.37;;;4.40;;
72113;SDS011;59989;46.220;19.888;2022-07-23T11:01:50;10.68;;;4.70;;
72113;SDS011;59989;46.220;19.888;2022-07-23T11:04:54;14.57;;;4.32;;
72113;SDS011;59989;46.220;19.888;2022-07-23T11:11:10;18.17;;;4.90;;
72113;SDS011;59989;46.220;19.888;2022-07-23T11:14:13;18.33;;;4.83;;
72113;SDS011;59989;46.220;19.888;2022-07-23T11:17:19;11.48;;;4.05;;
72113;SDS011;59989;46.220;19.888;2022-07-23T11:20:22;16.73;;;5.05;;
72113;SDS011;59989;46.220;19.888;2022-07-23T11:23:42;14.35;;;4.55;;
72113;SDS011;59989;46.220;19.888;2022-07-23T11:27:01;12.93;;;4.43;;
72113;SDS011;59989;46.220;19.888;2022-07-23T11:30:06;11.40;;;5.00;;
72113;SDS011;59989;46.220;19.888;2022-07-23T11:36:15;14.18;;;4.53;;
72113;SDS011;59989;46.220;19.888;2022-07-23T11:39:18;10.70;;;4.55;;
72113;SDS011;59989;46.220;19.888;2022-07-23T11:42:22;17.95;;;4.95;;
72113;SDS011;59989;46.220;19.888;2022-07-23T11:45:39;12.17;;;4.50;;
72113;SDS011;59989;46.220;19.888;2022-07-23T11:48:43;11.30;;;4.70;;
72113;SDS011;59989;46.220;19.888;2022-07-23T11:51:45;12.43;;;4.55;;
72113;SDS011;59989;46.220;19.888;2022-07-23T11:54:58;16.75;;;4.55;;
72113;SDS011;59989;46.220;19.888;2022-07-23T11:58:03;13.93;;;4.60;;
72113;SDS011;59989;46.220;19.888;2022-07-23T12:01:06;15.67;;;4.53;;
72113;SDS011;59989;46.220;19.888;2022-07-23T12:04:14;11.98;;;4.53;;
72113;SDS011;59989;46.220;19.888;2022-07-23T12:10:41;12.02;;;4.47;;
72113;SDS011;59989;46.220;19.888;2022-07-23T12:13:55;14.35;;;4.93;;
72113;SDS011;59989;46.220;19.888;2022-07-23T12:17:08;13.37;;;4.63;;
72113;SDS011;59989;46.220;19.888;2022-07-23T12:20:13;11.73;;;4.90;;
72113;SDS011;59989;46.220;19.888;2022-07-23T12:23:21;12.73;;;5.03;;
72113;SDS011;59989;46.220;19.888;2022-07-23T12:26:24;14.77;;;5.25;;
72113;SDS011;59989;46.220;19.888;2022-07-23T12:29:34;14.55;;;5.05;;
72113;SDS011;59989;46.220;19.888;2022-07-23T12:32:42;14.77;;;4.97;;
72113;SDS011;59989;46.220;19.888;2022-07-23T12:35:47;14.75;;;4.60;;
72113;SDS011;59989;46.220;19.888;2022-07-23T12:38:50;13.60;;;5.18;;
72113;SDS011;59989;46.220;19.888;2022-07-23T12:41:53;13.15;;;5.93;;
72113;SDS011;59989;46.220;19.888;2022-07-23T12:45:02;11.35;;;4.75;;
72113;SDS011;59989;46.220;19.888;2022-07-23T12:48:15;11.67;;;4.80;;
72113;SDS011;59989;46.220;19.888;2022-07-23T12:51:29;13.60;;;4.95;;
72113;SDS011;59989;46.220;19.888;2022-07-23T12:54:34;12.73;;;5.30;;
72113;SDS011;59989;46.220;19.888;2022-07-23T12:57:46;10.75;;;5.50;;
72113;SDS011;59989;46.220;19.888;2022-07-23T13:00:59;12.50;;;5.75;;
72113;SDS011;59989;46.220;19.888;2022-07-23T13:04:07;14.00;;;4.90;;
72113;SDS011;59989;46.220;19.888;2022-07-23T13:07:15;12.93;;;5.43;;
72113;SDS011;59989;46.220;19.888;2022-07-23T13:10:18;12.05;;;5.30;;
72113;SDS011;59989;46.220;19.888;2022-07-23T13:13:21;11.38;;;5.30;;
72113;SDS011;59989;46.220;19.888;2022-07-23T13:16:31;12.77;;;6.32;;
72113;SDS011;59989;46.220;19.888;2022-07-23T13:19:35;13.77;;;5.43;;
72113;SDS011;59989;46.220;19.888;2022-07-23T13:22:37;10.10;;;5.18;;
72113;SDS011;59989;46.220;19.888;2022-07-23T13:25:40;12.95;;;6.07;;
72113;SDS011;59989;46.220;19.888;2022-07-23T13:28:44;16.15;;;5.88;;
72113;SDS011;59989;46.220;19.888;2022-07-23T13:31:47;12.05;;;6.22;;
72113;SDS011;59989;46.220;19.888;2022-07-23T13:34:52;13.23;;;5.63;;
72113;SDS011;59989;46.220;19.888;2022-07-23T13:37:54;15.13;;;6.65;;
72113;SDS011;59989;46.220;19.888;2022-07-23T13:40:57;13.20;;;6.53;;
72113;SDS011;59989;46.220;19.888;2022-07-23T13:44:00;12.88;;;7.07;;
72113;SDS011;59989;46.220;19.888;2022-07-23T13:47:03;14.68;;;7.28;;
72113;SDS011;59989;46.220;19.888;2022-07-23T13:50:07;11.80;;;6.20;;
72113;SDS011;59989;46.220;19.888;2022-07-23T13:53:11;19.70;;;7.03;;
72113;SDS011;59989;46.220;19.888;2022-07-23T13:56:15;12.73;;;6.65;;
72113;SDS011;59989;46.220;19.888;2022-07-23T13:59:18;12.35;;;6.10;;
72113;SDS011;59989;46.220;19.888;2022-07-23T14:02:20;12.68;;;6.68;;
72113;SDS011;59989;46.220;19.888;2022-07-23T14:05:26;31.57;;;7.10;;
72113;SDS011;59989;46.220;19.888;2022-07-23T14:08:29;12.60;;;6.13;;
72113;SDS011;59989;46.220;19.888;2022-07-23T14:11:32;18.58;;;6.65;;
72113;SDS011;59989;46.220;19.888;2022-07-23T14:14:35;14.10;;;6.57;;
72113;SDS011;59989;46.220;19.888;2022-07-23T14:17:39;14.25;;;6.30;;
72113;SDS011;59989;46.220;19.888;2022-07-23T14:20:44;13.60;;;6.40;;
72113;SDS011;59989;46.220;19.888;2022-07-23T14:23:47;11.68;;;6.93;;
72113;SDS011;59989;46.220;19.888;2022-07-23T14:26:49;12.23;;;6.78;;
72113;SDS011;59989;46.220;19.888;2022-07-23T14:29:52;13.80;;;7.22;;
72113;SDS011;59989;46.220;19.888;2022-07-23T14:32:55;11.93;;;7.80;;
72113;SDS011;59989;46.220;19.888;2022-07-23T14:35:58;16.07;;;7.47;;
72113;SDS011;59989;46.220;19.888;2022-07-23T14:39:02;13.68;;;7.25;;
72113;SDS011;59989;46.220;19.888;2022-07-23T14:42:05;10.18;;;6.85;;
72113;SDS011;59989;46.220;19.888;2022-07-23T14:45:12;12.70;;;7.00;;
72113;SDS011;59989;46.220;19.888;2022-07-23T14:48:15;11.50;;;7.25;;
72113;SDS011;59989;46.220;19.888;2022-07-23T14:51:19;13.63;;;7.17;;
72113;SDS011;59989;46.220;19.888;2022-07-23T14:54:22;11.88;;;6.95;;
72113;SDS011;59989;46.220;19.888;2022-07-23T14:57:25;18.25;;;8.65;;
72113;SDS011;59989;46.220;19.888;2022-07-23T15:00:29;13.38;;;6.75;;
72113;SDS011;59989;46.220;19.888;2022-07-23T15:03:31;12.63;;;7.47;;
72113;SDS011;59989;46.220;19.888;2022-07-23T15:06:41;14.03;;;7.07;;
72113;SDS011;59989;46.220;19.888;2022-07-23T15:09:44;13.05;;;6.55;;
72113;SDS011;59989;46.220;19.888;2022-07-23T15:12:49;13.20;;;6.43;;
72113;SDS011;59989;46.220;19.888;2022-07-23T15:15:51;13.68;;;6.03;;
72113;SDS011;59989;46.220;19.888;2022-07-23T15:18:57;14.95;;;6.60;;
72113;SDS011;59989;46.220;19.888;2022-07-23T15:22:01;11.20;;;6.57;;
72113;SDS011;59989;46.220;19.888;2022-07-23T15:25:04;13.77;;;6.30;;
72113;SDS011;59989;46.220;19.888;2022-07-23T15:28:08;13.80;;;5.85;;
72113;SDS011;59989;46.220;19.888;2022-07-23T15:31:11;14.18;;;6.50;;
72113;SDS011;59989;46.220;19.888;2022-07-23T15:34:14;10.95;;;6.47;;
72113;SDS011;59989;46.220;19.888;2022-07-23T15:37:17;13.63;;;6.47;;
72113;SDS011;59989;46.220;19.888;2022-07-23T15:40:19;16.25;;;7.38;;
72113;SDS011;59989;46.220;19.888;2022-07-23T15:43:23;14.23;;;7.07;;
72113;SDS011;59989;46.220;19.888;2022-07-23T15:46:27;9.75;;;6.35;;
72113;SDS011;59989;46.220;19.888;2022-07-23T15:49:30;11.95;;;6.50;;
72113;SDS011;59989;46.220;19.888;2022-07-23T15:52:33;13.37;;;6.93;;
72113;SDS011;59989;46.220;19.888;2022-07-23T15:55:35;15.77;;;6.95;;
72113;SDS011;59989;46.220;19.888;2022-07-23T15:58:40;12.43;;;6.88;;
72113;SDS011;59989;46.220;19.888;2022-07-23T16:01:43;12.50;;;6.78;;
72113;SDS011;59989;46.220;19.888;2022-07-23T16:04:46;12.60;;;6.68;;
72113;SDS011;59989;46.220;19.888;2022-07-23T16:07:48;14.67;;;6.73;;
72113;SDS011;59989;46.220;19.888;2022-07-23T16:10:50;11.27;;;5.47;;
72113;SDS011;59989;46.220;19.888;2022-07-23T16:13:53;13.38;;;6.03;;
72113;SDS011;59989;46.220;19.888;2022-07-23T16:16:55;11.70;;;6.00;;
72113;SDS011;59989;46.220;19.888;2022-07-23T16:19:58;11.63;;;5.35;;
72113;SDS011;59989;46.220;19.888;2022-07-23T16:23:01;15.53;;;4.80;;
72113;SDS011;59989;46.220;19.888;2022-07-23T16:26:03;9.55;;;4.40;;
72113;SDS011;59989;46.220;19.888;2022-07-23T16:29:06;11.82;;;4.63;;
72113;SDS011;59989;46.220;19.888;2022-07-23T16:32:20;12.98;;;4.05;;
72113;SDS011;59989;46.220;19.888;2022-07-23T16:35:23;11.43;;;4.88;;
72113;SDS011;59989;46.220;19.888;2022-07-23T16:38:26;11.27;;;4.60;;
72113;SDS011;59989;46.220;19.888;2022-07-23T16:41:28;18.25;;;5.53;;
72113;SDS011;59989;46.220;19.888;2022-07-23T16:44:31;13.50;;;5.53;;
72113;SDS011;59989;46.220;19.888;2022-07-23T16:47:33;10.65;;;4.80;;
72113;SDS011;59989;46.220;19.888;2022-07-23T16:50:36;12.85;;;5.05;;
72113;SDS011;59989;46.220;19.888;2022-07-23T16:53:38;10.90;;;4.60;;
72113;SDS011;59989;46.220;19.888;2022-07-23T16:56:41;11.20;;;5.57;;
72113;SDS011;59989;46.220;19.888;2022-07-23T16:59:44;11.77;;;4.60;;
72113;SDS011;59989;46.220;19.888;2022-07-23T17:02:46;14.38;;;4.15;;
72113;SDS011;59989;46.220;19.888;2022-07-23T17:05:49;10.55;;;4.10;;
72113;SDS011;59989;46.220;19.888;2022-07-23T17:08:52;12.73;;;4.07;;
72113;SDS011;59989;46.220;19.888;2022-07-23T17:11:55;11.38;;;3.55;;
72113;SDS011;59989;46.220;19.888;2022-07-23T17:14:57;11.93;;;4.25;;
72113;SDS011;59989;46.220;19.888;2022-07-23T17:18:07;11.40;;;4.10;;
72113;SDS011;59989;46.220;19.888;2022-07-23T17:21:14;11.23;;;3.90;;
72113;SDS011;59989;46.220;19.888;2022-07-23T17:24:17;14.33;;;3.87;;
72113;SDS011;59989;46.220;19.888;2022-07-23T17:27:22;9.18;;;3.53;;
72113;SDS011;59989;46.220;19.888;2022-07-23T17:30:24;9.10;;;4.00;;
72113;SDS011;59989;46.220;19.888;2022-07-23T17:33:27;16.70;;;4.50;;
72113;SDS011;59989;46.220;19.888;2022-07-23T17:36:29;13.25;;;4.18;;
72113;SDS011;59989;46.220;19.888;2022-07-23T17:39:32;14.23;;;5.03;;
72113;SDS011;59989;46.220;19.888;2022-07-23T17:42:34;19.30;;;4.97;;
72113;SDS011;59989;46.220;19.888;2022-07-23T17:45:39;14.18;;;4.50;;
72113;SDS011;59989;46.220;19.888;2022-07-23T17:48:44;14.40;;;4.80;;
72113;SDS011;59989;46.220;19.888;2022-07-23T17:51:47;15.60;;;4.45;;
72113;SDS011;59989;46.220;19.888;2022-07-23T17:54:49;16.23;;;5.10;;
72113;SDS011;59989;46.220;19.888;2022-07-23T17:57:52;17.20;;;4.43;;
72113;SDS011;59989;46.220;19.888;2022-07-23T18:00:56;14.48;;;4.45;;
72113;SDS011;59989;46.220;19.888;2022-07-23T18:03:58;16.08;;;4.47;;
72113;SDS011;59989;46.220;19.888;2022-07-23T18:07:01;14.60;;;4.38;;
72113;SDS011;59989;46.220;19.888;2022-07-23T18:10:04;18.93;;;4.70;;
72113;SDS011;59989;46.220;19.888;2022-07-23T18:13:08;17.17;;;4.38;;
72113;SDS011;59989;46.220;19.888;2022-07-23T18:16:10;13.13;;;4.60;;
72113;SDS011;59989;46.220;19.888;2022-07-23T18:19:13;12.65;;;4.47;;
72113;SDS011;59989;46.220;19.888;2022-07-23T18:22:16;16.33;;;4.40;;